Time;durP1;ratioP1;P1;durP2;ratioP2;P2;SDS_P1;SDS_P2;PMS_P1;PMS_P2;Temp;Humidity;BMP_temperature;BMP_pressure;BME280_temperature;BME280_humidity;BME280_pressure;Samples;Min_cycle;Max_cycle;Signal;HPM_P1;HPM_P2
2023/01/14 00:01:54;;;;;;;;;;;7.40;99.90;;;;;;5069345;28;19908;-66
2023/01/14 00:04:19;;;;;;;;;;;7.40;99.90;;;;;;5069743;28;19959;-66
2023/01/14 00:06:45;;;;;;;;;;;7.40;99.90;;;;;;5033510;28;19917;-66
2023/01/14 00:09:11;;;;;;;;;;;7.40;99.90;;;;;;5030014;28;19917;-66
2023/01/14 00:11:46;;;;;;;;;;;7.40;99.90;;;;;;5028542;28;19909;-66
2023/01/14 00:14:21;;;;;;;;;;;7.40;99.90;;;;;;5029975;28;19940;-66
2023/01/14 00:16:46;;;;;;;;;;;7.40;99.90;;;;;;5041092;28;20011;-66
2023/01/14 00:19:12;;;;;;;;;;;7.40;99.90;;;;;;5040671;28;20335;-66
2023/01/14 00:21:40;;;;;;;;;;;7.40;99.90;;;;;;5027940;28;19921;-66
2023/01/14 00:24:06;;;;;;;;;;;7.40;99.90;;;;;;5028614;28;19956;-66
2023/01/14 00:26:32;;;;;;;;;;;7.40;99.90;;;;;;5045993;28;19909;-66
2023/01/14 00:28:57;;;;;;;;;;;7.40;99.90;;;;;;5048227;28;19913;-66
2023/01/14 00:31:24;;;;;;;;;;;7.40;99.90;;;;;;5047848;28;20358;-66
2023/01/14 00:33:50;;;;;;;;;;;7.40;99.90;;;;;;5046131;28;20404;-67
2023/01/14 00:36:16;;;;;;;;;;;7.40;99.90;;;;;;5049220;28;19912;-66
2023/01/14 00:38:42;;;;;;;;;;;7.40;99.90;;;;;;5049225;28;20030;-66
2023/01/14 00:41:07;;;;;;;;;;;7.40;99.90;;;;;;5049228;28;20412;-66
2023/01/14 00:43:36;;;;;;;;;;;7.40;99.90;;;;;;5049055;28;19919;-66
2023/01/14 00:46:03;;;;;;;;;;;7.40;99.90;;;;;;5049245;28;20320;-66
2023/01/14 00:48:28;;;;;;;;;;;7.40;99.90;;;;;;5051144;28;19967;-66
2023/01/14 00:50:54;;;;;;;;;;;7.40;99.90;;;;;;5055005;28;19912;-66
2023/01/14 00:53:19;;;;;;;;;;;7.40;99.90;;;;;;5048427;28;19909;-66
2023/01/14 00:55:45;;;;;;;;;;;7.40;99.90;;;;;;5059039;28;19913;-66
2023/01/14 00:58:10;;;;;;;;;;;7.40;99.90;;;;;;5068923;28;19916;-66
2023/01/14 01:00:36;;;;;;;;;;;7.40;99.90;;;;;;5068809;28;19908;-66
2023/01/14 01:03:01;;;;;;;;;;;7.40;99.90;;;;;;5069015;28;19909;-66
2023/01/14 01:05:27;;;;;;;;;;;7.40;99.90;;;;;;5069004;28;20010;-66
2023/01/14 01:07:52;;;;;;;;;;;7.40;99.90;;;;;;5068186;28;20535;-66
2023/01/14 01:10:18;;;;;;;;;;;7.40;99.90;;;;;;5068568;28;19963;-66
2023/01/14 01:12:43;;;;;;;;;;;7.40;99.90;;;;;;5068587;28;19926;-66
2023/01/14 01:15:09;;;;;;;;;;;7.40;99.90;;;;;;5068828;28;20003;-66
2023/01/14 01:17:35;;;;;;;;;;;7.40;99.90;;;;;;5050561;28;19909;-66
2023/01/14 01:20:00;;;;;;;;;;;7.40;99.90;;;;;;5029884;28;19925;-66
2023/01/14 01:22:28;;;;;;;;;;;7.40;99.90;;;;;;5028567;28;20474;-66
2023/01/14 01:24:53;;;;;;;;;;;7.40;99.90;;;;;;5030791;28;19917;-66
2023/01/14 01:27:18;;;;;;;;;;;7.40;99.90;;;;;;5048462;28;19909;-66
2023/01/14 01:29:44;;;;;;;;;;;7.40;99.90;;;;;;5048457;28;20457;-66
2023/01/14 01:32:09;;;;;;;;;;;7.40;99.90;;;;;;5048634;28;19912;-66
2023/01/14 01:34:35;;;;;;;;;;;7.40;99.90;;;;;;5048254;28;20016;-66
2023/01/14 01:37:00;;;;;;;;;;;7.40;99.90;;;;;;5048342;28;20354;-67
2023/01/14 01:39:26;;;;;;;;;;;7.40;99.90;;;;;;5047959;28;20286;-66
2023/01/14 01:41:51;;;;;;;;;;;7.40;99.90;;;;;;5047508;28;20366;-67
2023/01/14 01:44:17;;;;;;;;;;;7.40;99.90;;;;;;5048061;28;19935;-66
2023/01/14 01:46:42;;;;;;;;;;;7.40;99.90;;;;;;5048139;28;19912;-67
2023/01/14 01:49:18;;;;;;;;;;;7.40;99.90;;;;;;5055423;28;19966;-66
2023/01/14 01:51:47;;;;;;;;;;;7.40;99.90;;;;;;5027760;28;19913;-66
2023/01/14 01:54:13;;;;;;;;;;;7.40;99.90;;;;;;5028034;28;20425;-66
2023/01/14 01:56:39;;;;;;;;;;;7.40;99.90;;;;;;5062452;28;20010;-66
2023/01/14 01:59:06;;;;;;;;;;;7.40;99.90;;;;;;5067517;28;19913;-66
2023/01/14 02:01:32;;;;;;;;;;;7.40;99.90;;;;;;5067522;28;20010;-66
2023/01/14 02:03:58;;;;;;;;;;;7.40;99.90;;;;;;5067551;28;19916;-66
2023/01/14 02:06:24;;;;;;;;;;;7.40;99.90;;;;;;5064479;28;19916;-66
2023/01/14 02:08:52;;;;;;;;;;;7.40;99.90;;;;;;5047019;28;19916;-66
2023/01/14 02:11:23;;;;;;;;;;;7.40;99.90;;;;;;5044397;28;19958;-66
2023/01/14 02:14:06;;;;;;;;;;;7.30;99.90;;;;;;5047709;28;19999;-66
2023/01/14 02:16:32;;;;;;;;;;;7.40;99.90;;;;;;5047296;28;19915;-66
2023/01/14 02:19:06;;;;;;;;;;;7.30;99.90;;;;;;5036534;28;20634;-66
2023/01/14 02:21:34;;;;;;;;;;;7.40;99.90;;;;;;5026486;28;20441;-66
2023/01/14 02:24:38;;;;;;;;;;;7.40;99.90;;;;;;5026686;28;19920;-66
2023/01/14 02:27:06;;;;;;;;;;;7.30;99.90;;;;;;5023960;28;19920;-66
2023/01/14 02:29:32;;;;;;;;;;;7.30;99.90;;;;;;5023808;28;20040;-67
2023/01/14 02:32:12;;;;;;;;;;;7.30;99.90;;;;;;5030255;28;19999;-66
2023/01/14 02:34:41;;;;;;;;;;;7.30;99.90;;;;;;5066541;28;19920;-66
2023/01/14 02:37:12;;;;;;;;;;;7.30;99.90;;;;;;5033904;28;19969;-66
2023/01/14 02:39:40;;;;;;;;;;;7.30;99.90;;;;;;5026310;28;19909;-66
2023/01/14 02:45:05;;;;;;;;;;;7.30;99.90;;;;;;5026572;28;19967;-66
2023/01/14 02:47:32;;;;;;;;;;;7.30;99.90;;;;;;5043364;28;19924;-66
2023/01/14 02:49:58;;;;;;;;;;;7.30;99.90;;;;;;5053611;28;19916;-67
2023/01/14 02:52:25;;;;;;;;;;;7.30;99.90;;;;;;5045643;28;19912;-66
2023/01/14 02:54:57;;;;;;;;;;;7.30;99.90;;;;;;5048055;28;19917;-66
2023/01/14 02:57:52;;;;;;;;;;;7.20;99.90;;;;;;5064826;28;20011;-66
2023/01/14 03:00:22;;;;;;;;;;;7.20;99.90;;;;;;4992383;28;19913;-66
2023/01/14 03:02:56;;;;;;;;;;;7.20;99.90;;;;;;5066332;28;19909;-66
2023/01/14 03:05:22;;;;;;;;;;;7.20;99.90;;;;;;5065621;28;19917;-66
2023/01/14 03:07:55;;;;;;;;;;;7.20;99.90;;;;;;5065937;28;19912;-66
2023/01/14 03:10:35;;;;;;;;;;;7.20;99.90;;;;;;5065813;28;19973;-66
2023/01/14 03:13:22;;;;;;;;;;;7.20;99.90;;;;;;5065979;28;19917;-66
2023/01/14 03:15:49;;;;;;;;;;;7.30;99.90;;;;;;5062565;28;20345;-66
2023/01/14 03:18:19;;;;;;;;;;;7.20;99.90;;;;;;5045111;28;19919;-69
2023/01/14 03:20:48;;;;;;;;;;;7.20;99.90;;;;;;4962737;28;1802222;-68
2023/01/14 03:23:17;;;;;;;;;;;7.20;99.90;;;;;;5030379;28;20276;-69
2023/01/14 03:25:44;;;;;;;;;;;7.20;99.90;;;;;;5040657;28;19959;-66
2023/01/14 03:28:13;;;;;;;;;;;7.20;99.90;;;;;;5050240;28;19967;-66
2023/01/14 03:30:42;;;;;;;;;;;7.20;99.90;;;;;;5051060;28;19909;-67
2023/01/14 03:33:15;;;;;;;;;;;7.20;99.90;;;;;;5050476;28;19909;-67
2023/01/14 03:35:42;;;;;;;;;;;7.20;99.90;;;;;;5050991;28;20353;-66
2023/01/14 03:38:07;;;;;;;;;;;7.20;99.90;;;;;;5049766;28;19912;-66
2023/01/14 03:40:34;;;;;;;;;;;7.20;99.90;;;;;;5050422;28;19919;-66
2023/01/14 03:43:23;;;;;;;;;;;7.20;99.90;;;;;;5050384;28;19916;-66
2023/01/14 03:45:48;;;;;;;;;;;7.20;99.90;;;;;;5049777;28;20020;-66
2023/01/14 03:48:14;;;;;;;;;;;7.20;99.90;;;;;;5050469;28;20017;-66
2023/01/14 03:51:00;;;;;;;;;;;7.20;99.90;;;;;;5058277;28;19913;-66
2023/01/14 03:53:33;;;;;;;;;;;7.20;99.90;;;;;;5039134;28;20419;-66
2023/01/14 03:56:07;;;;;;;;;;;7.20;99.90;;;;;;5061630;28;19978;-66
2023/01/14 03:58:44;;;;;;;;;;;7.20;99.90;;;;;;5070252;28;19913;-66
2023/01/14 04:01:13;;;;;;;;;;;7.20;99.90;;;;;;5070073;28;20323;-66
2023/01/14 04:03:38;;;;;;;;;;;7.10;99.90;;;;;;5070039;28;19913;-66
2023/01/14 04:06:04;;;;;;;;;;;7.10;99.90;;;;;;5070144;28;19919;-66
2023/01/14 04:08:30;;;;;;;;;;;7.20;99.90;;;;;;5053741;28;19944;-66
2023/01/14 04:10:55;;;;;;;;;;;7.10;99.90;;;;;;5029617;28;19913;-66
2023/01/14 04:16:05;;;;;;;;;;;7.10;99.90;;;;;;5034983;28;19965;-66
2023/01/14 04:18:30;;;;;;;;;;;7.10;99.90;;;;;;5044433;28;20542;-66
2023/01/14 04:20:56;;;;;;;;;;;7.10;99.90;;;;;;5034916;28;19925;-67
2023/01/14 04:23:22;;;;;;;;;;;7.10;99.90;;;;;;5029761;28;19909;-66
2023/01/14 04:25:47;;;;;;;;;;;7.10;99.90;;;;;;5040419;28;19932;-67
2023/01/14 04:28:12;;;;;;;;;;;7.10;99.90;;;;;;5048973;28;20021;-66
2023/01/14 04:30:40;;;;;;;;;;;7.10;99.90;;;;;;5048074;28;19920;-66
2023/01/14 04:33:05;;;;;;;;;;;7.10;99.90;;;;;;5049312;28;19920;-66
2023/01/14 04:35:31;;;;;;;;;;;7.10;99.90;;;;;;5049880;28;19916;-66
2023/01/14 04:37:56;;;;;;;;;;;7.10;99.90;;;;;;5046356;28;19955;-66
2023/01/14 04:40:22;;;;;;;;;;;7.10;99.90;;;;;;5049540;28;20258;-66
2023/01/14 04:42:47;;;;;;;;;;;7.10;99.90;;;;;;5049209;28;20031;-66
2023/01/14 04:45:13;;;;;;;;;;;7.00;99.90;;;;;;5048686;28;20509;-66
2023/01/14 04:47:38;;;;;;;;;;;7.10;99.90;;;;;;5049468;28;19913;-66
2023/01/14 04:50:30;;;;;;;;;;;7.00;99.90;;;;;;5057248;28;20271;-66
2023/01/14 04:52:50;;;;;;;;;;;7.00;99.90;;;;;;5049122;28;20725;-66
2023/01/14 04:55:16;;;;;;;;;;;7.00;99.90;;;;;;5053842;28;19951;-66
2023/01/14 04:57:41;;;;;;;;;;;7.00;99.90;;;;;;5068949;28;19916;-66
2023/01/14 05:00:07;;;;;;;;;;;7.10;99.90;;;;;;5068944;28;20406;-66
2023/01/14 05:02:33;;;;;;;;;;;7.00;99.90;;;;;;5068578;28;19946;-67
2023/01/14 05:04:58;;;;;;;;;;;7.00;99.90;;;;;;5069069;28;19916;-66
2023/01/14 05:07:24;;;;;;;;;;;7.00;99.90;;;;;;5067617;28;20760;-66
2023/01/14 05:09:49;;;;;;;;;;;7.00;99.90;;;;;;5068724;28;19908;-66
2023/01/14 05:12:15;;;;;;;;;;;7.00;99.90;;;;;;5068587;28;20001;-66
2023/01/14 05:14:40;;;;;;;;;;;7.00;99.90;;;;;;5068762;28;19935;-66
2023/01/14 05:17:05;;;;;;;;;;;7.00;99.90;;;;;;5068661;28;19913;-66
2023/01/14 05:19:31;;;;;;;;;;;7.00;99.90;;;;;;5039334;28;20358;-66
2023/01/14 05:21:56;;;;;;;;;;;7.00;99.90;;;;;;5028432;28;20004;-66
2023/01/14 05:24:22;;;;;;;;;;;7.00;99.90;;;;;;5028540;28;20385;-66
2023/01/14 05:26:48;;;;;;;;;;;7.00;99.90;;;;;;5047096;28;20408;-66
2023/01/14 05:29:13;;;;;;;;;;;7.00;99.90;;;;;;5048148;28;19913;-66
2023/01/14 05:31:39;;;;;;;;;;;7.00;99.90;;;;;;5048244;28;19939;-66
2023/01/14 05:34:04;;;;;;;;;;;7.00;99.90;;;;;;5048495;28;19909;-66
2023/01/14 05:36:30;;;;;;;;;;;7.00;99.90;;;;;;5048053;28;20593;-66
2023/01/14 05:38:55;;;;;;;;;;;7.00;99.90;;;;;;5048045;28;19913;-66
2023/01/14 05:41:21;;;;;;;;;;;6.90;99.90;;;;;;5048098;28;19994;-66
2023/01/14 05:46:30;;;;;;;;;;;7.00;99.90;;;;;;5057101;28;20708;-66
2023/01/14 05:48:56;;;;;;;;;;;6.90;99.90;;;;;;5068005;28;19916;-66
2023/01/14 05:51:21;;;;;;;;;;;6.90;99.90;;;;;;5044165;28;19913;-66
2023/01/14 05:53:47;;;;;;;;;;;6.90;99.90;;;;;;5027795;28;19951;-66
2023/01/14 05:56:12;;;;;;;;;;;6.90;99.90;;;;;;5040144;28;20551;-66
2023/01/14 05:58:38;;;;;;;;;;;6.90;99.90;;;;;;5046103;28;19966;-66
2023/01/14 06:06:43;;;;;;;;;;;6.90;99.90;;;;;;5046983;28;19947;-66
2023/01/14 06:09:09;;;;;;;;;;;6.90;99.90;;;;;;5045067;28;19913;-66
2023/01/14 06:11:36;;;;;;;;;;;6.90;99.90;;;;;;5047443;28;19920;-66
2023/01/14 06:14:02;;;;;;;;;;;6.90;99.90;;;;;;5047235;28;19948;-66
2023/01/14 06:16:30;;;;;;;;;;;6.90;99.90;;;;;;5047653;28;19941;-66
2023/01/14 06:18:56;;;;;;;;;;;6.90;99.90;;;;;;5041071;28;19991;-66
2023/01/14 06:21:23;;;;;;;;;;;6.90;99.90;;;;;;5026757;28;19924;-66
2023/01/14 06:23:48;;;;;;;;;;;6.90;99.90;;;;;;5027430;28;20008;-67
2023/01/14 06:26:20;;;;;;;;;;;6.90;99.90;;;;;;5040510;28;19944;-66
2023/01/14 06:28:46;;;;;;;;;;;6.90;99.90;;;;;;5047275;28;19913;-66
2023/01/14 06:31:13;;;;;;;;;;;6.90;99.90;;;;;;5047290;28;19909;-66
2023/01/14 06:33:39;;;;;;;;;;;6.90;99.90;;;;;;5047377;28;19995;-66
2023/01/14 06:36:06;;;;;;;;;;;6.90;99.90;;;;;;5047458;28;20078;-66
2023/01/14 06:38:31;;;;;;;;;;;6.90;99.90;;;;;;5047051;28;20289;-66
2023/01/14 06:41:00;;;;;;;;;;;6.90;99.90;;;;;;5046868;28;19909;-66
2023/01/14 06:43:26;;;;;;;;;;;6.90;99.90;;;;;;5046218;28;19913;-66
2023/01/14 06:45:52;;;;;;;;;;;6.90;99.90;;;;;;5044442;28;19912;-66
2023/01/14 06:48:18;;;;;;;;;;;6.90;99.90;;;;;;5047454;28;20429;-66
2023/01/14 06:50:43;;;;;;;;;;;6.90;99.90;;;;;;5042391;28;19966;-66
2023/01/14 06:53:09;;;;;;;;;;;6.90;99.90;;;;;;5026904;28;19952;-66
2023/01/14 06:55:34;;;;;;;;;;;6.90;99.90;;;;;;5043941;28;19953;-66
2023/01/14 06:57:59;;;;;;;;;;;6.80;99.90;;;;;;5066349;28;19916;-66
2023/01/14 07:00:26;;;;;;;;;;;6.90;99.90;;;;;;5066258;28;20121;-66
2023/01/14 07:02:51;;;;;;;;;;;6.90;99.90;;;;;;5066759;28;20064;-66
2023/01/14 07:05:17;;;;;;;;;;;6.90;99.90;;;;;;5066936;28;19916;-66
2023/01/14 07:07:49;;;;;;;;;;;6.90;99.90;;;;;;5066584;28;19919;-66
2023/01/14 07:10:15;;;;;;;;;;;6.90;99.90;;;;;;5066489;28;19909;-66
2023/01/14 07:12:47;;;;;;;;;;;6.90;99.90;;;;;;5066545;28;19940;-66
2023/01/14 07:15:13;;;;;;;;;;;6.90;99.90;;;;;;5064631;28;20280;-66
2023/01/14 07:17:39;;;;;;;;;;;6.90;99.90;;;;;;5038989;28;19916;-66
2023/01/14 07:20:05;;;;;;;;;;;6.90;99.90;;;;;;5028102;28;19924;-66
2023/01/14 07:22:31;;;;;;;;;;;6.90;99.90;;;;;;5026442;28;19913;-66
2023/01/14 07:24:56;;;;;;;;;;;6.90;99.90;;;;;;5029894;28;19913;-66
2023/01/14 07:27:22;;;;;;;;;;;6.90;99.90;;;;;;5046135;28;19986;-66
2023/01/14 07:29:47;;;;;;;;;;;6.90;99.90;;;;;;5037068;28;19924;-66
2023/01/14 07:32:12;;;;;;;;;;;6.90;99.90;;;;;;5029543;28;19936;-66
2023/01/14 07:34:38;;;;;;;;;;;6.90;99.90;;;;;;5024609;28;19913;-66
2023/01/14 07:37:03;;;;;;;;;;;6.90;99.90;;;;;;5034399;28;19917;-66
2023/01/14 07:39:29;;;;;;;;;;;6.90;99.90;;;;;;5036199;28;19909;-66
2023/01/14 07:41:55;;;;;;;;;;;6.90;99.90;;;;;;5035428;28;20717;-66
2023/01/14 07:44:23;;;;;;;;;;;6.90;99.90;;;;;;5036907;28;19917;-66
2023/01/14 07:46:53;;;;;;;;;;;6.90;99.90;;;;;;5037237;28;19912;-66
2023/01/14 07:49:18;;;;;;;;;;;6.90;99.90;;;;;;5035502;28;19913;-66
2023/01/14 07:51:44;;;;;;;;;;;6.90;99.90;;;;;;5035028;28;20232;-66
2023/01/14 07:54:09;;;;;;;;;;;6.90;99.90;;;;;;5035831;28;20697;-66
2023/01/14 07:56:35;;;;;;;;;;;6.90;99.90;;;;;;5037510;28;19913;-66
2023/01/14 07:59:00;;;;;;;;;;;6.90;99.90;;;;;;5040027;28;19921;-66
2023/01/14 08:01:26;;;;;;;;;;;6.90;99.90;;;;;;5034369;28;20042;-66
2023/01/14 08:03:51;;;;;;;;;;;6.90;99.90;;;;;;5036310;28;19916;-66
2023/01/14 08:06:17;;;;;;;;;;;6.90;99.90;;;;;;5034465;28;20280;-66
2023/01/14 08:08:42;;;;;;;;;;;6.90;99.90;;;;;;5035216;28;19973;-66
2023/01/14 08:11:08;;;;;;;;;;;6.90;99.90;;;;;;5043052;28;19964;-66
2023/01/14 08:13:33;;;;;;;;;;;6.90;99.90;;;;;;5040331;28;19913;-66
2023/01/14 08:16:00;;;;;;;;;;;6.90;99.90;;;;;;5039708;28;20011;-66
2023/01/14 08:18:25;;;;;;;;;;;6.90;99.90;;;;;;5039869;28;19920;-66
2023/01/14 08:20:57;;;;;;;;;;;6.90;99.90;;;;;;5036132;28;20293;-66
2023/01/14 08:23:23;;;;;;;;;;;6.90;99.90;;;;;;5038820;28;19910;-66
2023/01/14 08:25:48;;;;;;;;;;;6.90;99.90;;;;;;5042542;28;19917;-66
2023/01/14 08:28:14;;;;;;;;;;;6.90;99.90;;;;;;5048956;28;19909;-66
2023/01/14 08:30:39;;;;;;;;;;;6.90;99.90;;;;;;5049452;28;20546;-66
2023/01/14 08:33:05;;;;;;;;;;;6.90;99.90;;;;;;5048987;28;19993;-66
2023/01/14 08:35:30;;;;;;;;;;;6.90;99.90;;;;;;5049837;28;19952;-66
2023/01/14 08:37:56;;;;;;;;;;;6.90;99.90;;;;;;5047031;28;19913;-66
2023/01/14 08:40:23;;;;;;;;;;;6.90;99.90;;;;;;5048571;28;19913;-66
2023/01/14 08:42:48;;;;;;;;;;;6.90;99.90;;;;;;5048505;28;19913;-66
2023/01/14 08:45:14;;;;;;;;;;;6.90;99.90;;;;;;5049369;28;20357;-66
2023/01/14 08:47:39;;;;;;;;;;;6.90;99.90;;;;;;5049190;28;19913;-66
2023/01/14 08:50:05;;;;;;;;;;;7.00;99.90;;;;;;5057529;28;19913;-66
2023/01/14 08:52:31;;;;;;;;;;;6.90;99.90;;;;;;5049415;28;19920;-66
2023/01/14 08:54:56;;;;;;;;;;;7.00;99.90;;;;;;5052484;28;20445;-66
2023/01/14 08:57:21;;;;;;;;;;;7.00;99.90;;;;;;5068907;28;19915;-66
2023/01/14 08:59:48;;;;;;;;;;;7.00;99.90;;;;;;5068070;28;19915;-66
2023/01/14 09:02:14;;;;;;;;;;;7.00;99.90;;;;;;5067765;28;20002;-66
2023/01/14 09:04:40;;;;;;;;;;;6.90;99.90;;;;;;5068950;28;20005;-66
2023/01/14 09:18:03;;;;;;;;;;;7.00;99.90;;;;;;5063828;28;19974;-66
2023/01/14 09:20:39;;;;;;;;;;;7.00;99.90;;;;;;5025492;28;19928;-66
2023/01/14 09:23:06;;;;;;;;;;;7.00;99.90;;;;;;5028116;28;20401;-66
2023/01/14 09:25:32;;;;;;;;;;;7.00;99.90;;;;;;5036664;28;20608;-66
2023/01/14 09:27:57;;;;;;;;;;;7.00;99.90;;;;;;5037331;28;19948;-66
2023/01/14 09:30:23;;;;;;;;;;;7.00;99.90;;;;;;5037312;28;19914;-66
2023/01/14 09:32:48;;;;;;;;;;;7.00;99.90;;;;;;5036995;28;19921;-66
2023/01/14 09:35:14;;;;;;;;;;;7.00;99.90;;;;;;5037617;28;19913;-66
2023/01/14 09:37:39;;;;;;;;;;;7.00;99.90;;;;;;5037728;28;20601;-66
2023/01/14 09:40:05;;;;;;;;;;;7.00;99.90;;;;;;5038999;28;19917;-66
2023/01/14 09:42:39;;;;;;;;;;;7.00;99.90;;;;;;5037921;28;20030;-66
2023/01/14 09:45:04;;;;;;;;;;;7.00;99.90;;;;;;5038754;28;19913;-66
2023/01/14 09:47:30;;;;;;;;;;;7.00;99.90;;;;;;5039637;28;19913;-66
2023/01/14 09:49:55;;;;;;;;;;;7.00;99.90;;;;;;5040855;28;20021;-66
2023/01/14 09:52:24;;;;;;;;;;;7.00;99.90;;;;;;5036859;28;20031;-66
2023/01/14 09:55:08;;;;;;;;;;;7.00;99.90;;;;;;5050020;28;19916;-66
2023/01/14 09:57:39;;;;;;;;;;;7.00;99.90;;;;;;5067948;28;19913;-66
2023/01/14 10:00:13;;;;;;;;;;;7.00;99.90;;;;;;5067836;28;19955;-66
2023/01/14 10:02:43;;;;;;;;;;;7.00;99.90;;;;;;5037844;28;19928;-66
2023/01/14 10:05:10;;;;;;;;;;;7.00;99.90;;;;;;5035112;28;19925;-66
2023/01/14 10:07:35;;;;;;;;;;;7.00;99.90;;;;;;5029742;28;19919;-66
2023/01/14 10:10:01;;;;;;;;;;;7.00;99.90;;;;;;5040124;28;19999;-66
2023/01/14 10:12:29;;;;;;;;;;;7.00;99.90;;;;;;5042638;28;19913;-66
2023/01/14 10:15:01;;;;;;;;;;;7.10;99.90;;;;;;5027605;28;19963;-66
2023/01/14 10:17:30;;;;;;;;;;;7.00;99.90;;;;;;5038347;28;19924;-66
2023/01/14 10:19:58;;;;;;;;;;;7.10;99.90;;;;;;5039040;28;19967;-66
2023/01/14 10:22:32;;;;;;;;;;;7.10;99.90;;;;;;5035770;28;19913;-66
2023/01/14 10:24:57;;;;;;;;;;;7.10;99.90;;;;;;5038955;28;19912;-66
2023/01/14 10:27:25;;;;;;;;;;;7.10;99.90;;;;;;5036002;28;19919;-66
2023/01/14 10:29:51;;;;;;;;;;;7.10;99.90;;;;;;5036103;28;19917;-66
2023/01/14 10:32:19;;;;;;;;;;;7.20;99.90;;;;;;5037495;28;19978;-66
2023/01/14 10:34:49;;;;;;;;;;;7.20;99.90;;;;;;5035170;28;20277;-66
2023/01/14 10:37:15;;;;;;;;;;;7.10;99.90;;;;;;5027319;28;19913;-66
2023/01/14 10:39:51;;;;;;;;;;;7.20;99.90;;;;;;5026827;28;19919;-66
2023/01/14 10:42:22;;;;;;;;;;;7.20;99.90;;;;;;5028394;28;19992;-66
2023/01/14 10:44:48;;;;;;;;;;;7.20;99.90;;;;;;5027365;28;19996;-66
2023/01/14 10:47:16;;;;;;;;;;;7.20;99.90;;;;;;5040692;28;19995;-66
2023/01/14 10:49:45;;;;;;;;;;;7.20;99.90;;;;;;5054538;28;20435;-66
2023/01/14 10:52:22;;;;;;;;;;;7.20;99.90;;;;;;5046953;28;19913;-66
2023/01/14 10:55:11;;;;;;;;;;;7.20;99.90;;;;;;5049025;28;20491;-66
2023/01/14 10:57:47;;;;;;;;;;;7.20;99.90;;;;;;5025772;28;19960;-66
2023/01/14 11:00:33;;;;;;;;;;;7.20;99.90;;;;;;5035642;28;19909;-66
2023/01/14 11:02:59;;;;;;;;;;;7.20;99.90;;;;;;5036944;28;19924;-66
2023/01/14 11:05:28;;;;;;;;;;;7.20;99.90;;;;;;5036331;28;19912;-66
2023/01/14 11:07:56;;;;;;;;;;;7.20;99.90;;;;;;5037302;28;19965;-66
2023/01/14 11:10:26;;;;;;;;;;;7.20;99.90;;;;;;5036102;28;19963;-66
2023/01/14 11:12:52;;;;;;;;;;;7.30;99.90;;;;;;5035025;28;19924;-66
2023/01/14 11:15:32;;;;;;;;;;;7.20;99.90;;;;;;5037531;28;19908;-66
2023/01/14 11:18:16;;;;;;;;;;;7.30;99.90;;;;;;5035265;28;20008;-66
2023/01/14 11:20:41;;;;;;;;;;;7.30;99.90;;;;;;5035638;28;19940;-66
2023/01/14 11:23:13;;;;;;;;;;;7.30;99.90;;;;;;5036510;28;19913;-65
2023/01/14 11:25:41;;;;;;;;;;;7.30;99.90;;;;;;5042461;28;19974;-66
2023/01/14 11:28:07;;;;;;;;;;;7.30;99.90;;;;;;5033157;28;19917;-67
2023/01/14 11:30:33;;;;;;;;;;;7.30;99.90;;;;;;5026064;28;20267;-66
2023/01/14 11:32:59;;;;;;;;;;;7.30;99.90;;;;;;5025815;28;20022;-66
2023/01/14 11:35:28;;;;;;;;;;;7.30;99.90;;;;;;5025747;28;19936;-66
2023/01/14 11:37:54;;;;;;;;;;;7.30;99.90;;;;;;5024990;28;20000;-66
2023/01/14 11:40:22;;;;;;;;;;;7.30;99.90;;;;;;5027835;28;19979;-66
2023/01/14 11:42:47;;;;;;;;;;;7.30;99.90;;;;;;5037450;28;19917;-66
2023/01/14 11:45:13;;;;;;;;;;;7.30;99.90;;;;;;5045045;28;20621;-66
2023/01/14 11:47:52;;;;;;;;;;;7.30;99.90;;;;;;5049321;28;19959;-66
2023/01/14 11:50:21;;;;;;;;;;;7.30;99.90;;;;;;5051915;28;19919;-66
2023/01/14 11:52:53;;;;;;;;;;;7.30;99.90;;;;;;5050267;28;19913;-66
2023/01/14 11:55:19;;;;;;;;;;;7.30;99.90;;;;;;5056549;28;19912;-66
2023/01/14 11:57:44;;;;;;;;;;;7.40;99.90;;;;;;5068412;28;20317;-66
2023/01/14 12:00:11;;;;;;;;;;;7.40;99.90;;;;;;5069821;28;19956;-66
2023/01/14 12:02:39;;;;;;;;;;;7.40;99.90;;;;;;5053919;28;19909;-66
2023/01/14 12:05:10;;;;;;;;;;;7.40;99.90;;;;;;5050013;28;19912;-66
2023/01/14 12:07:55;;;;;;;;;;;7.40;99.90;;;;;;5049932;28;19952;-66
2023/01/14 12:10:25;;;;;;;;;;;7.40;99.90;;;;;;5049564;28;19944;-66
2023/01/14 12:18:35;;;;;;;;;;;7.40;99.90;;;;;;5047634;28;19978;-66
2023/01/14 12:21:02;;;;;;;;;;;7.40;99.90;;;;;;5039170;28;20632;-66
2023/01/14 12:23:29;;;;;;;;;;;7.50;99.90;;;;;;5031485;28;19913;-66
2023/01/14 12:25:57;;;;;;;;;;;7.40;99.90;;;;;;5051461;28;19916;-66
2023/01/14 12:28:29;;;;;;;;;;;7.50;99.90;;;;;;5068763;28;19908;-66
2023/01/14 12:30:58;;;;;;;;;;;7.50;99.90;;;;;;5068402;28;19920;-66
2023/01/14 12:33:26;;;;;;;;;;;7.50;99.90;;;;;;5069408;28;20686;-66
2023/01/14 12:35:59;;;;;;;;;;;7.50;99.90;;;;;;5069275;28;19923;-66
2023/01/14 12:46:45;;;;;;;;;;;7.50;99.90;;;;;;5039933;28;20665;-66
2023/01/14 12:49:10;;;;;;;;;;;7.60;99.90;;;;;;5057268;28;19952;-66
2023/01/14 12:51:37;;;;;;;;;;;7.60;99.90;;;;;;5069211;28;19935;-66
2023/01/14 12:54:06;;;;;;;;;;;7.60;99.90;;;;;;5068571;28;20268;-66
2023/01/14 12:56:34;;;;;;;;;;;7.60;99.90;;;;;;5069318;28;20276;-66
2023/01/14 12:58:59;;;;;;;;;;;7.60;99.90;;;;;;5067777;28;19919;-66
2023/01/14 13:01:26;;;;;;;;;;;7.60;99.90;;;;;;5062269;28;19916;-66
2023/01/14 13:03:57;;;;;;;;;;;7.60;99.90;;;;;;5035965;28;20322;-66
2023/01/14 13:06:29;;;;;;;;;;;7.60;99.90;;;;;;5036930;28;19908;-66
2023/01/14 13:08:55;;;;;;;;;;;7.60;99.90;;;;;;5039448;28;20358;-66
2023/01/14 13:11:25;;;;;;;;;;;7.70;99.90;;;;;;5039456;28;19916;-66
2023/01/14 13:13:52;;;;;;;;;;;7.70;99.90;;;;;;5037833;28;20378;-68
2023/01/14 13:16:30;;;;;;;;;;;7.70;99.90;;;;;;5039975;28;19956;-66
2023/01/14 13:18:56;;;;;;;;;;;7.60;99.90;;;;;;5039368;28;20376;-66
2023/01/14 13:21:40;;;;;;;;;;;7.70;99.90;;;;;;5035535;28;19920;-66
2023/01/14 13:24:26;;;;;;;;;;;7.70;99.90;;;;;;5037278;28;20265;-66
2023/01/14 13:26:51;;;;;;;;;;;7.70;99.90;;;;;;5039101;28;19917;-66
2023/01/14 13:29:19;;;;;;;;;;;7.70;99.90;;;;;;5034341;28;19940;-66
2023/01/14 13:31:45;;;;;;;;;;;7.70;99.90;;;;;;5028423;28;19917;-66
2023/01/14 13:34:23;;;;;;;;;;;7.70;99.90;;;;;;5027878;28;19913;-66
2023/01/14 13:37:02;;;;;;;;;;;7.70;99.90;;;;;;5028368;28;20492;-66
2023/01/14 13:39:28;;;;;;;;;;;7.70;99.90;;;;;;5027825;28;20522;-66
2023/01/14 13:41:55;;;;;;;;;;;7.70;99.90;;;;;;5028364;28;19913;-66
2023/01/14 13:44:23;;;;;;;;;;;7.70;99.90;;;;;;5027871;28;19924;-66
2023/01/14 13:46:51;;;;;;;;;;;7.70;99.90;;;;;;5039755;28;19940;-67
2023/01/14 13:49:23;;;;;;;;;;;7.70;99.90;;;;;;5054470;28;19908;-66
2023/01/14 13:51:49;;;;;;;;;;;7.80;99.90;;;;;;5047937;28;19912;-66
2023/01/14 13:54:17;;;;;;;;;;;7.80;99.90;;;;;;5047692;28;19909;-66
2023/01/14 13:56:44;;;;;;;;;;;7.80;99.90;;;;;;5065416;28;19921;-66
2023/01/14 13:59:15;;;;;;;;;;;7.80;99.90;;;;;;5067462;28;19916;-66
2023/01/14 14:01:40;;;;;;;;;;;7.80;99.90;;;;;;5066539;28;19913;-66
2023/01/14 14:04:09;;;;;;;;;;;7.80;99.90;;;;;;5046729;28;20436;-66
2023/01/14 14:06:35;;;;;;;;;;;7.80;99.90;;;;;;5029058;28;19916;-66
2023/01/14 14:09:01;;;;;;;;;;;7.80;99.90;;;;;;5027245;28;19956;-66
2023/01/14 14:11:27;;;;;;;;;;;7.80;99.90;;;;;;5030890;28;19944;-66
2023/01/14 14:14:07;;;;;;;;;;;7.80;99.90;;;;;;5047048;28;19913;-66
2023/01/14 14:16:32;;;;;;;;;;;7.80;99.90;;;;;;5047411;28;19909;-66
2023/01/14 14:19:02;;;;;;;;;;;7.80;99.90;;;;;;5038253;28;19992;-66
2023/01/14 14:21:51;;;;;;;;;;;7.80;99.90;;;;;;5025644;28;19948;-66
2023/01/14 14:24:18;;;;;;;;;;;7.80;99.90;;;;;;5024042;28;19913;-66
2023/01/14 14:26:45;;;;;;;;;;;7.80;99.90;;;;;;5045580;28;19913;-66
2023/01/14 14:29:12;;;;;;;;;;;7.80;99.90;;;;;;5046676;28;19974;-66
2023/01/14 14:31:39;;;;;;;;;;;7.80;99.90;;;;;;5041160;28;19913;-66
2023/01/14 14:34:12;;;;;;;;;;;7.80;99.90;;;;;;5037203;28;19920;-66
2023/01/14 14:36:39;;;;;;;;;;;7.80;99.90;;;;;;5037435;28;19996;-66
2023/01/14 14:39:17;;;;;;;;;;;7.80;99.90;;;;;;5031545;28;19957;-66
2023/01/14 14:41:44;;;;;;;;;;;7.90;99.90;;;;;;5028296;28;20385;-66
2023/01/14 14:44:36;;;;;;;;;;;7.90;99.90;;;;;;5026542;28;20258;-66
2023/01/14 14:47:13;;;;;;;;;;;7.80;99.90;;;;;;5038037;28;19952;-66
2023/01/14 14:49:38;;;;;;;;;;;7.90;99.90;;;;;;5041911;28;20568;-66
2023/01/14 14:52:09;;;;;;;;;;;7.90;99.90;;;;;;5026999;28;19913;-66
2023/01/14 14:54:36;;;;;;;;;;;7.90;99.90;;;;;;5027612;28;19924;-66
2023/01/14 14:57:03;;;;;;;;;;;7.90;99.90;;;;;;5067081;28;19912;-66
2023/01/14 14:59:31;;;;;;;;;;;7.90;99.90;;;;;;5066455;28;19919;-66
2023/01/14 15:01:58;;;;;;;;;;;7.90;99.90;;;;;;5066528;28;19944;-66
2023/01/14 15:04:25;;;;;;;;;;;7.90;99.90;;;;;;5066103;28;20545;-66
2023/01/14 15:06:52;;;;;;;;;;;7.90;99.90;;;;;;5041656;28;19916;-66
2023/01/14 15:09:19;;;;;;;;;;;7.90;99.90;;;;;;5037142;28;19913;-66
2023/01/14 15:11:46;;;;;;;;;;;8.00;99.90;;;;;;5038176;28;19920;-66
2023/01/14 15:14:32;;;;;;;;;;;7.90;99.90;;;;;;5042537;28;19921;-66
2023/01/14 15:16:58;;;;;;;;;;;7.90;99.90;;;;;;5035321;28;19924;-66